sensor_id;sensor_type;location;lat;lon;timestamp;P1;durP1;ratioP1;P2;durP2;ratioP2
49828;SDS011;35723;51.194;5.112;2023-03-01T00:02:19;21.92;;;11.00;;
49828;SDS011;35723;51.194;5.112;2023-03-01T00:04:45;22.33;;;10.98;;
49828;SDS011;35723;51.194;5.112;2023-03-01T00:07:11;22.77;;;10.77;;
49828;SDS011;35723;51.194;5.112;2023-03-01T00:09:37;22.40;;;10.50;;
49828;SDS011;35723;51.194;5.112;2023-03-01T00:12:03;22.85;;;11.30;;
49828;SDS011;35723;51.194;5.112;2023-03-01T00:14:29;24.30;;;11.88;;
49828;SDS011;35723;51.194;5.112;2023-03-01T00:16:55;24.08;;;11.85;;
49828;SDS011;35723;51.194;5.112;2023-03-01T00:19:20;26.40;;;12.90;;
49828;SDS011;35723;51.194;5.112;2023-03-01T00:21:49;24.58;;;12.55;;
49828;SDS011;35723;51.194;5.112;2023-03-01T00:24:15;26.00;;;11.60;;
49828;SDS011;35723;51.194;5.112;2023-03-01T00:26:40;23.83;;;12.18;;
49828;SDS011;35723;51.194;5.112;2023-03-01T00:29:06;27.45;;;12.30;;
49828;SDS011;35723;51.194;5.112;2023-03-01T00:31:32;27.30;;;11.88;;
49828;SDS011;35723;51.194;5.112;2023-03-01T00:34:02;24.60;;;11.88;;
49828;SDS011;35723;51.194;5.112;2023-03-01T00:36:31;27.25;;;11.45;;
49828;SDS011;35723;51.194;5.112;2023-03-01T00:38:59;22.55;;;10.95;;
49828;SDS011;35723;51.194;5.112;2023-03-01T00:41:25;22.20;;;10.95;;
49828;SDS011;35723;51.194;5.112;2023-03-01T00:43:51;25.75;;;11.43;;
49828;SDS011;35723;51.194;5.112;2023-03-01T00:46:20;24.05;;;10.90;;
49828;SDS011;35723;51.194;5.112;2023-03-01T00:48:48;23.58;;;10.90;;
49828;SDS011;35723;51.194;5.112;2023-03-01T00:53:41;22.27;;;10.75;;
49828;SDS011;35723;51.194;5.112;2023-03-01T00:56:07;21.75;;;10.38;;
49828;SDS011;35723;51.194;5.112;2023-03-01T00:58:35;23.45;;;10.88;;
49828;SDS011;35723;51.194;5.112;2023-03-01T01:01:01;23.05;;;10.75;;
49828;SDS011;35723;51.194;5.112;2023-03-01T01:03:42;23.55;;;11.50;;
49828;SDS011;35723;51.194;5.112;2023-03-01T01:06:13;22.73;;;10.65;;
49828;SDS011;35723;51.194;5.112;2023-03-01T01:08:47;21.40;;;10.13;;
49828;SDS011;35723;51.194;5.112;2023-03-01T01:11:14;21.27;;;10.20;;
49828;SDS011;35723;51.194;5.112;2023-03-01T01:13:41;22.98;;;10.23;;
49828;SDS011;35723;51.194;5.112;2023-03-01T01:16:08;22.05;;;9.85;;
49828;SDS011;35723;51.194;5.112;2023-03-01T01:18:34;21.90;;;10.27;;
49828;SDS011;35723;51.194;5.112;2023-03-01T01:21:08;21.35;;;9.68;;
49828;SDS011;35723;51.194;5.112;2023-03-01T01:23:38;21.80;;;10.38;;
49828;SDS011;35723;51.194;5.112;2023-03-01T01:26:08;19.73;;;9.68;;
49828;SDS011;35723;51.194;5.112;2023-03-01T01:28:39;22.13;;;9.90;;
49828;SDS011;35723;51.194;5.112;2023-03-01T01:31:05;22.25;;;10.15;;
49828;SDS011;35723;51.194;5.112;2023-03-01T01:33:31;23.40;;;9.75;;
49828;SDS011;35723;51.194;5.112;2023-03-01T01:35:57;22.05;;;9.65;;
49828;SDS011;35723;51.194;5.112;2023-03-01T01:38:24;21.27;;;9.57;;
49828;SDS011;35723;51.194;5.112;2023-03-01T01:40:50;21.48;;;10.13;;
49828;SDS011;35723;51.194;5.112;2023-03-01T01:43:27;21.90;;;9.80;;
49828;SDS011;35723;51.194;5.112;2023-03-01T01:45:55;19.45;;;9.27;;
49828;SDS011;35723;51.194;5.112;2023-03-01T01:48:25;22.45;;;9.93;;
49828;SDS011;35723;51.194;5.112;2023-03-01T01:51:29;26.08;;;9.75;;
49828;SDS011;35723;51.194;5.112;2023-03-01T01:54:03;22.65;;;9.82;;
49828;SDS011;35723;51.194;5.112;2023-03-01T01:56:34;21.25;;;10.13;;
49828;SDS011;35723;51.194;5.112;2023-03-01T01:59:02;22.83;;;10.20;;
49828;SDS011;35723;51.194;5.112;2023-03-01T02:01:28;22.08;;;10.32;;
49828;SDS011;35723;51.194;5.112;2023-03-01T02:03:54;21.17;;;9.80;;
49828;SDS011;35723;51.194;5.112;2023-03-01T02:06:27;22.02;;;10.32;;
49828;SDS011;35723;51.194;5.112;2023-03-01T02:09:00;21.38;;;10.32;;
49828;SDS011;35723;51.194;5.112;2023-03-01T02:11:32;21.45;;;10.10;;
49828;SDS011;35723;51.194;5.112;2023-03-01T02:13:59;21.38;;;9.90;;
49828;SDS011;35723;51.194;5.112;2023-03-01T02:16:25;21.40;;;9.60;;
49828;SDS011;35723;51.194;5.112;2023-03-01T02:18:51;20.63;;;10.02;;
49828;SDS011;35723;51.194;5.112;2023-03-01T02:26:54;21.63;;;10.25;;
49828;SDS011;35723;51.194;5.112;2023-03-01T02:29:22;23.23;;;10.23;;
49828;SDS011;35723;51.194;5.112;2023-03-01T02:31:49;24.80;;;10.90;;
49828;SDS011;35723;51.194;5.112;2023-03-01T02:34:18;22.92;;;10.40;;
49828;SDS011;35723;51.194;5.112;2023-03-01T02:36:47;27.20;;;10.63;;
49828;SDS011;35723;51.194;5.112;2023-03-01T02:39:26;24.52;;;11.25;;
49828;SDS011;35723;51.194;5.112;2023-03-01T02:41:55;22.80;;;10.30;;
49828;SDS011;35723;51.194;5.112;2023-03-01T02:44:24;22.42;;;10.65;;
49828;SDS011;35723;51.194;5.112;2023-03-01T02:46:50;21.63;;;10.05;;
49828;SDS011;35723;51.194;5.112;2023-03-01T02:55:04;22.88;;;10.65;;
49828;SDS011;35723;51.194;5.112;2023-03-01T02:57:33;25.98;;;10.88;;
49828;SDS011;35723;51.194;5.112;2023-03-01T03:00:03;24.45;;;10.38;;
49828;SDS011;35723;51.194;5.112;2023-03-01T03:02:35;23.17;;;10.02;;
49828;SDS011;35723;51.194;5.112;2023-03-01T03:05:05;24.38;;;11.43;;
49828;SDS011;35723;51.194;5.112;2023-03-01T03:07:42;22.55;;;10.27;;
49828;SDS011;35723;51.194;5.112;2023-03-01T03:10:13;23.65;;;10.57;;
49828;SDS011;35723;51.194;5.112;2023-03-01T03:12:41;22.52;;;10.80;;
49828;SDS011;35723;51.194;5.112;2023-03-01T03:15:08;23.17;;;10.32;;
49828;SDS011;35723;51.194;5.112;2023-03-01T03:17:37;23.58;;;9.85;;
49828;SDS011;35723;51.194;5.112;2023-03-01T03:20:04;25.02;;;10.65;;
49828;SDS011;35723;51.194;5.112;2023-03-01T03:22:35;24.08;;;10.07;;
49828;SDS011;35723;51.194;5.112;2023-03-01T03:25:02;23.00;;;10.23;;
49828;SDS011;35723;51.194;5.112;2023-03-01T03:27:28;25.38;;;10.90;;
49828;SDS011;35723;51.194;5.112;2023-03-01T03:29:53;21.75;;;10.30;;
49828;SDS011;35723;51.194;5.112;2023-03-01T03:32:19;21.17;;;10.25;;
49828;SDS011;35723;51.194;5.112;2023-03-01T03:34:45;22.92;;;10.38;;
49828;SDS011;35723;51.194;5.112;2023-03-01T03:37:10;21.63;;;10.25;;
49828;SDS011;35723;51.194;5.112;2023-03-01T03:39:56;21.58;;;9.43;;
49828;SDS011;35723;51.194;5.112;2023-03-01T03:42:21;22.90;;;9.93;;
49828;SDS011;35723;51.194;5.112;2023-03-01T03:44:47;22.17;;;9.73;;
49828;SDS011;35723;51.194;5.112;2023-03-01T03:47:13;22.23;;;9.98;;
49828;SDS011;35723;51.194;5.112;2023-03-01T03:49:39;22.30;;;10.00;;
49828;SDS011;35723;51.194;5.112;2023-03-01T03:52:04;20.67;;;9.85;;
49828;SDS011;35723;51.194;5.112;2023-03-01T03:54:38;22.70;;;9.88;;
49828;SDS011;35723;51.194;5.112;2023-03-01T03:57:05;20.35;;;9.52;;
49828;SDS011;35723;51.194;5.112;2023-03-01T03:59:31;23.60;;;9.93;;
49828;SDS011;35723;51.194;5.112;2023-03-01T04:01:56;22.25;;;10.05;;
49828;SDS011;35723;51.194;5.112;2023-03-01T04:04:22;20.42;;;9.52;;
49828;SDS011;35723;51.194;5.112;2023-03-01T04:06:48;21.45;;;9.73;;
49828;SDS011;35723;51.194;5.112;2023-03-01T04:09:13;22.92;;;9.80;;
49828;SDS011;35723;51.194;5.112;2023-03-01T04:11:39;22.38;;;10.20;;
49828;SDS011;35723;51.194;5.112;2023-03-01T04:14:05;20.65;;;9.50;;
49828;SDS011;35723;51.194;5.112;2023-03-01T04:16:30;21.15;;;9.55;;
49828;SDS011;35723;51.194;5.112;2023-03-01T04:18:56;23.58;;;10.15;;
49828;SDS011;35723;51.194;5.112;2023-03-01T04:21:24;23.90;;;9.95;;
49828;SDS011;35723;51.194;5.112;2023-03-01T04:23:50;21.00;;;9.95;;
49828;SDS011;35723;51.194;5.112;2023-03-01T04:26:17;22.75;;;9.65;;
49828;SDS011;35723;51.194;5.112;2023-03-01T04:28:44;21.20;;;9.82;;
49828;SDS011;35723;51.194;5.112;2023-03-01T04:31:15;21.70;;;10.02;;
49828;SDS011;35723;51.194;5.112;2023-03-01T04:33:53;21.80;;;10.32;;
49828;SDS011;35723;51.194;5.112;2023-03-01T04:36:21;20.63;;;9.82;;
49828;SDS011;35723;51.194;5.112;2023-03-01T04:38:48;23.63;;;9.98;;
49828;SDS011;35723;51.194;5.112;2023-03-01T04:41:15;24.00;;;10.70;;
49828;SDS011;35723;51.194;5.112;2023-03-01T04:43:41;24.05;;;10.50;;
49828;SDS011;35723;51.194;5.112;2023-03-01T04:46:08;20.95;;;9.68;;
49828;SDS011;35723;51.194;5.112;2023-03-01T04:48:37;22.60;;;10.68;;
49828;SDS011;35723;51.194;5.112;2023-03-01T04:51:03;22.42;;;10.02;;
49828;SDS011;35723;51.194;5.112;2023-03-01T04:53:30;22.10;;;10.02;;
49828;SDS011;35723;51.194;5.112;2023-03-01T04:55:57;22.02;;;10.25;;
49828;SDS011;35723;51.194;5.112;2023-03-01T04:58:23;24.70;;;10.80;;
49828;SDS011;35723;51.194;5.112;2023-03-01T05:00:50;21.63;;;9.60;;
49828;SDS011;35723;51.194;5.112;2023-03-01T05:03:16;22.80;;;9.85;;
49828;SDS011;35723;51.194;5.112;2023-03-01T05:05:43;24.42;;;10.45;;
49828;SDS011;35723;51.194;5.112;2023-03-01T05:08:10;22.20;;;9.98;;
49828;SDS011;35723;51.194;5.112;2023-03-01T05:10:42;23.10;;;10.65;;
49828;SDS011;35723;51.194;5.112;2023-03-01T05:13:09;23.10;;;10.57;;
49828;SDS011;35723;51.194;5.112;2023-03-01T05:15:35;22.63;;;11.02;;
49828;SDS011;35723;51.194;5.112;2023-03-01T05:18:01;25.50;;;10.85;;
49828;SDS011;35723;51.194;5.112;2023-03-01T05:20:28;22.83;;;10.70;;
49828;SDS011;35723;51.194;5.112;2023-03-01T05:22:56;21.75;;;10.70;;
49828;SDS011;35723;51.194;5.112;2023-03-01T05:25:30;24.60;;;11.23;;
49828;SDS011;35723;51.194;5.112;2023-03-01T05:27:58;23.23;;;10.60;;
49828;SDS011;35723;51.194;5.112;2023-03-01T05:30:29;24.30;;;10.85;;
49828;SDS011;35723;51.194;5.112;2023-03-01T05:32:58;25.27;;;11.20;;
49828;SDS011;35723;51.194;5.112;2023-03-01T05:35:23;25.17;;;11.18;;
49828;SDS011;35723;51.194;5.112;2023-03-01T05:37:50;22.73;;;10.65;;
49828;SDS011;35723;51.194;5.112;2023-03-01T05:40:17;23.83;;;10.30;;
49828;SDS011;35723;51.194;5.112;2023-03-01T05:42:54;24.02;;;10.77;;
49828;SDS011;35723;51.194;5.112;2023-03-01T05:45:22;25.67;;;10.48;;
49828;SDS011;35723;51.194;5.112;2023-03-01T05:47:49;25.70;;;11.23;;
49828;SDS011;35723;51.194;5.112;2023-03-01T05:50:17;24.77;;;10.55;;
49828;SDS011;35723;51.194;5.112;2023-03-01T05:52:48;23.73;;;10.57;;
49828;SDS011;35723;51.194;5.112;2023-03-01T05:55:19;22.17;;;11.02;;
49828;SDS011;35723;51.194;5.112;2023-03-01T05:57:46;25.77;;;10.98;;
49828;SDS011;35723;51.194;5.112;2023-03-01T06:00:13;23.52;;;10.43;;
49828;SDS011;35723;51.194;5.112;2023-03-01T06:02:40;25.75;;;11.38;;
49828;SDS011;35723;51.194;5.112;2023-03-01T06:05:06;23.10;;;11.00;;
49828;SDS011;35723;51.194;5.112;2023-03-01T06:07:34;25.27;;;10.68;;
49828;SDS011;35723;51.194;5.112;2023-03-01T06:10:00;22.88;;;10.60;;
49828;SDS011;35723;51.194;5.112;2023-03-01T06:12:29;23.23;;;11.00;;
49828;SDS011;35723;51.194;5.112;2023-03-01T06:14:56;25.50;;;10.75;;
49828;SDS011;35723;51.194;5.112;2023-03-01T06:17:21;25.50;;;11.70;;
49828;SDS011;35723;51.194;5.112;2023-03-01T06:19:47;24.65;;;11.27;;
49828;SDS011;35723;51.194;5.112;2023-03-01T06:22:12;25.23;;;11.38;;
49828;SDS011;35723;51.194;5.112;2023-03-01T06:24:38;25.13;;;11.43;;
49828;SDS011;35723;51.194;5.112;2023-03-01T06:27:04;25.65;;;11.30;;
49828;SDS011;35723;51.194;5.112;2023-03-01T06:29:29;24.67;;;10.73;;
49828;SDS011;35723;51.194;5.112;2023-03-01T06:31:55;25.60;;;11.43;;
49828;SDS011;35723;51.194;5.112;2023-03-01T06:34:21;25.48;;;11.38;;
49828;SDS011;35723;51.194;5.112;2023-03-01T06:36:47;25.05;;;11.55;;
49828;SDS011;35723;51.194;5.112;2023-03-01T06:39:12;27.90;;;11.80;;
49828;SDS011;35723;51.194;5.112;2023-03-01T06:41:38;24.55;;;11.25;;
49828;SDS011;35723;51.194;5.112;2023-03-01T06:44:04;24.13;;;11.70;;
49828;SDS011;35723;51.194;5.112;2023-03-01T06:46:29;25.40;;;11.57;;
49828;SDS011;35723;51.194;5.112;2023-03-01T06:48:55;25.08;;;11.27;;
49828;SDS011;35723;51.194;5.112;2023-03-01T06:51:21;25.65;;;11.10;;
49828;SDS011;35723;51.194;5.112;2023-03-01T06:53:47;25.42;;;11.52;;
49828;SDS011;35723;51.194;5.112;2023-03-01T06:58:57;26.13;;;11.70;;
49828;SDS011;35723;51.194;5.112;2023-03-01T07:01:23;24.95;;;11.25;;
49828;SDS011;35723;51.194;5.112;2023-03-01T07:03:49;26.00;;;12.70;;
49828;SDS011;35723;51.194;5.112;2023-03-01T07:06:14;25.80;;;12.02;;
49828;SDS011;35723;51.194;5.112;2023-03-01T07:08:40;25.13;;;11.23;;
49828;SDS011;35723;51.194;5.112;2023-03-01T07:11:06;25.15;;;11.32;;
49828;SDS011;35723;51.194;5.112;2023-03-01T07:13:32;24.20;;;11.23;;
49828;SDS011;35723;51.194;5.112;2023-03-01T07:19:20;24.88;;;11.25;;
49828;SDS011;35723;51.194;5.112;2023-03-01T07:21:47;28.25;;;12.25;;
49828;SDS011;35723;51.194;5.112;2023-03-01T07:24:12;23.27;;;11.18;;
49828;SDS011;35723;51.194;5.112;2023-03-01T07:30:02;26.08;;;11.65;;
49828;SDS011;35723;51.194;5.112;2023-03-01T07:32:28;22.73;;;10.85;;
49828;SDS011;35723;51.194;5.112;2023-03-01T07:34:54;23.23;;;11.20;;
49828;SDS011;35723;51.194;5.112;2023-03-01T07:37:20;25.48;;;11.20;;
49828;SDS011;35723;51.194;5.112;2023-03-01T07:39:45;22.55;;;11.07;;
49828;SDS011;35723;51.194;5.112;2023-03-01T07:42:11;24.67;;;11.35;;
49828;SDS011;35723;51.194;5.112;2023-03-01T07:44:36;24.95;;;11.80;;
49828;SDS011;35723;51.194;5.112;2023-03-01T07:47:06;23.70;;;11.23;;
49828;SDS011;35723;51.194;5.112;2023-03-01T07:53:11;23.52;;;10.88;;
49828;SDS011;35723;51.194;5.112;2023-03-01T07:58:25;25.15;;;11.27;;
49828;SDS011;35723;51.194;5.112;2023-03-01T08:00:51;22.73;;;11.43;;
49828;SDS011;35723;51.194;5.112;2023-03-01T08:06:04;26.80;;;11.57;;
49828;SDS011;35723;51.194;5.112;2023-03-01T08:08:31;24.40;;;11.75;;
49828;SDS011;35723;51.194;5.112;2023-03-01T08:11:01;27.60;;;11.98;;
49828;SDS011;35723;51.194;5.112;2023-03-01T08:13:29;24.52;;;11.07;;
49828;SDS011;35723;51.194;5.112;2023-03-01T08:16:00;27.35;;;11.73;;
49828;SDS011;35723;51.194;5.112;2023-03-01T08:19:08;26.08;;;11.90;;
49828;SDS011;35723;51.194;5.112;2023-03-01T08:21:36;26.25;;;11.68;;
49828;SDS011;35723;51.194;5.112;2023-03-01T08:24:05;23.77;;;11.85;;
49828;SDS011;35723;51.194;5.112;2023-03-01T08:29:54;26.90;;;11.85;;
49828;SDS011;35723;51.194;5.112;2023-03-01T08:35:07;25.08;;;12.13;;
49828;SDS011;35723;51.194;5.112;2023-03-01T08:37:33;24.75;;;11.50;;
49828;SDS011;35723;51.194;5.112;2023-03-01T08:43:25;24.80;;;11.82;;
49828;SDS011;35723;51.194;5.112;2023-03-01T08:49:24;23.38;;;12.18;;
49828;SDS011;35723;51.194;5.112;2023-03-01T08:55:29;24.50;;;11.80;;
49828;SDS011;35723;51.194;5.112;2023-03-01T09:01:18;28.23;;;12.27;;
49828;SDS011;35723;51.194;5.112;2023-03-01T09:06:31;24.13;;;11.35;;
49828;SDS011;35723;51.194;5.112;2023-03-01T09:09:00;23.33;;;11.82;;
49828;SDS011;35723;51.194;5.112;2023-03-01T09:14:55;23.88;;;11.65;;
49828;SDS011;35723;51.194;5.112;2023-03-01T09:23:35;26.52;;;11.00;;
49828;SDS011;35723;51.194;5.112;2023-03-01T09:26:03;22.73;;;9.85;;
49828;SDS011;35723;51.194;5.112;2023-03-01T09:28:30;24.58;;;10.73;;
49828;SDS011;35723;51.194;5.112;2023-03-01T09:30:59;25.83;;;11.23;;
49828;SDS011;35723;51.194;5.112;2023-03-01T09:33:25;23.50;;;10.80;;
49828;SDS011;35723;51.194;5.112;2023-03-01T09:35:56;22.52;;;10.60;;
49828;SDS011;35723;51.194;5.112;2023-03-01T09:38:23;22.60;;;10.48;;
49828;SDS011;35723;51.194;5.112;2023-03-01T09:40:48;23.42;;;10.65;;
49828;SDS011;35723;51.194;5.112;2023-03-01T09:46:04;22.40;;;10.82;;
49828;SDS011;35723;51.194;5.112;2023-03-01T09:48:39;25.80;;;12.25;;
49828;SDS011;35723;51.194;5.112;2023-03-01T09:51:19;23.10;;;10.68;;
49828;SDS011;35723;51.194;5.112;2023-03-01T09:53:51;23.70;;;10.88;;
49828;SDS011;35723;51.194;5.112;2023-03-01T09:56:29;24.90;;;11.20;;
49828;SDS011;35723;51.194;5.112;2023-03-01T10:01:51;24.55;;;12.05;;
49828;SDS011;35723;51.194;5.112;2023-03-01T10:09:36;27.65;;;11.52;;
49828;SDS011;35723;51.194;5.112;2023-03-01T10:15:11;23.90;;;10.77;;
49828;SDS011;35723;51.194;5.112;2023-03-01T10:17:52;25.20;;;10.90;;
49828;SDS011;35723;51.194;5.112;2023-03-01T10:20:23;24.90;;;11.32;;
49828;SDS011;35723;51.194;5.112;2023-03-01T10:23:02;25.52;;;11.05;;
49828;SDS011;35723;51.194;5.112;2023-03-01T10:29:05;22.92;;;11.00;;
49828;SDS011;35723;51.194;5.112;2023-03-01T10:31:04;22.65;;;11.00;;
49828;SDS011;35723;51.194;5.112;2023-03-01T10:33:37;24.98;;;11.55;;
49828;SDS011;35723;51.194;5.112;2023-03-01T10:36:07;26.35;;;11.82;;
49828;SDS011;35723;51.194;5.112;2023-03-01T10:38:54;26.23;;;11.75;;
49828;SDS011;35723;51.194;5.112;2023-03-01T10:41:22;22.50;;;11.15;;
49828;SDS011;35723;51.194;5.112;2023-03-01T10:43:50;28.42;;;11.75;;
49828;SDS011;35723;51.194;5.112;2023-03-01T10:46:30;23.08;;;11.48;;
49828;SDS011;35723;51.194;5.112;2023-03-01T10:51:39;23.42;;;11.10;;
49828;SDS011;35723;51.194;5.112;2023-03-01T10:54:15;26.92;;;11.52;;
49828;SDS011;35723;51.194;5.112;2023-03-01T10:57:10;25.20;;;10.70;;
49828;SDS011;35723;51.194;5.112;2023-03-01T11:00:00;23.83;;;11.20;;
49828;SDS011;35723;51.194;5.112;2023-03-01T11:02:38;24.02;;;11.60;;
49828;SDS011;35723;51.194;5.112;2023-03-01T11:07:58;24.90;;;12.13;;
49828;SDS011;35723;51.194;5.112;2023-03-01T11:10:34;26.75;;;11.57;;
49828;SDS011;35723;51.194;5.112;2023-03-01T11:13:17;21.80;;;11.30;;
49828;SDS011;35723;51.194;5.112;2023-03-01T11:16:03;23.90;;;11.68;;
49828;SDS011;35723;51.194;5.112;2023-03-01T11:18:32;24.60;;;11.95;;
49828;SDS011;35723;51.194;5.112;2023-03-01T11:20:58;25.33;;;11.70;;
49828;SDS011;35723;51.194;5.112;2023-03-01T11:23:27;24.15;;;11.50;;
49828;SDS011;35723;51.194;5.112;2023-03-01T11:25:56;22.85;;;11.57;;
49828;SDS011;35723;51.194;5.112;2023-03-01T11:28:28;23.87;;;11.57;;
49828;SDS011;35723;51.194;5.112;2023-03-01T11:36:06;23.90;;;11.48;;
49828;SDS011;35723;51.194;5.112;2023-03-01T11:38:48;22.58;;;11.68;;
49828;SDS011;35723;51.194;5.112;2023-03-01T11:41:18;25.42;;;11.80;;
49828;SDS011;35723;51.194;5.112;2023-03-01T11:43:56;24.60;;;11.73;;
49828;SDS011;35723;51.194;5.112;2023-03-01T11:51:59;25.77;;;12.32;;
49828;SDS011;35723;51.194;5.112;2023-03-01T12:08:32;24.08;;;11.63;;
49828;SDS011;35723;51.194;5.112;2023-03-01T12:30:44;24.37;;;11.93;;
49828;SDS011;35723;51.194;5.112;2023-03-01T12:33:27;23.63;;;10.70;;
49828;SDS011;35723;51.194;5.112;2023-03-01T12:38:37;22.75;;;11.00;;
49828;SDS011;35723;51.194;5.112;2023-03-01T12:41:36;26.30;;;10.73;;
49828;SDS011;35723;51.194;5.112;2023-03-01T12:47:07;21.58;;;10.60;;
49828;SDS011;35723;51.194;5.112;2023-03-01T12:49:56;23.20;;;11.45;;
49828;SDS011;35723;51.194;5.112;2023-03-01T12:55:35;26.05;;;12.00;;
49828;SDS011;35723;51.194;5.112;2023-03-01T13:07:01;25.35;;;11.02;;
49828;SDS011;35723;51.194;5.112;2023-03-01T13:17:47;23.33;;;11.35;;
49828;SDS011;35723;51.194;5.112;2023-03-01T13:20:15;22.10;;;10.50;;
49828;SDS011;35723;51.194;5.112;2023-03-01T13:22:43;23.20;;;11.18;;
49828;SDS011;35723;51.194;5.112;2023-03-01T13:25:17;22.45;;;10.75;;
49828;SDS011;35723;51.194;5.112;2023-03-01T13:27:44;20.23;;;10.02;;
49828;SDS011;35723;51.194;5.112;2023-03-01T13:35:52;23.27;;;10.27;;
49828;SDS011;35723;51.194;5.112;2023-03-01T13:41:10;22.77;;;9.85;;
49828;SDS011;35723;51.194;5.112;2023-03-01T13:43:38;22.63;;;10.07;;
49828;SDS011;35723;51.194;5.112;2023-03-01T13:46:38;19.73;;;9.48;;
49828;SDS011;35723;51.194;5.112;2023-03-01T13:48:57;20.42;;;9.70;;
49828;SDS011;35723;51.194;5.112;2023-03-01T13:51:25;20.98;;;9.05;;
49828;SDS011;35723;51.194;5.112;2023-03-01T13:53:52;20.42;;;9.10;;
49828;SDS011;35723;51.194;5.112;2023-03-01T13:56:33;20.67;;;9.70;;
49828;SDS011;35723;51.194;5.112;2023-03-01T13:59:04;19.85;;;9.18;;
49828;SDS011;35723;51.194;5.112;2023-03-01T14:02:00;22.30;;;9.52;;
49828;SDS011;35723;51.194;5.112;2023-03-01T14:04:29;19.38;;;8.68;;
49828;SDS011;35723;51.194;5.112;2023-03-01T14:09:35;19.02;;;8.85;;
49828;SDS011;35723;51.194;5.112;2023-03-01T14:15:18;20.17;;;8.70;;
49828;SDS011;35723;51.194;5.112;2023-03-01T14:17:53;19.52;;;9.25;;
49828;SDS011;35723;51.194;5.112;2023-03-01T14:20:24;19.40;;;9.10;;
49828;SDS011;35723;51.194;5.112;2023-03-01T14:22:53;18.73;;;8.80;;
49828;SDS011;35723;51.194;5.112;2023-03-01T14:30:49;21.85;;;9.40;;
49828;SDS011;35723;51.194;5.112;2023-03-01T14:35:52;18.67;;;9.13;;
49828;SDS011;35723;51.194;5.112;2023-03-01T14:41:03;18.40;;;8.40;;
49828;SDS011;35723;51.194;5.112;2023-03-01T14:43:35;18.35;;;9.30;;
49828;SDS011;35723;51.194;5.112;2023-03-01T14:46:15;20.90;;;9.00;;
49828;SDS011;35723;51.194;5.112;2023-03-01T14:49:12;18.52;;;8.82;;
49828;SDS011;35723;51.194;5.112;2023-03-01T14:51:42;22.83;;;9.20;;
49828;SDS011;35723;51.194;5.112;2023-03-01T14:57:22;18.52;;;8.77;;
49828;SDS011;35723;51.194;5.112;2023-03-01T14:59:54;17.80;;;8.43;;
49828;SDS011;35723;51.194;5.112;2023-03-01T15:02:24;18.50;;;8.63;;
49828;SDS011;35723;51.194;5.112;2023-03-01T15:04:51;18.13;;;8.65;;
49828;SDS011;35723;51.194;5.112;2023-03-01T15:07:21;19.88;;;8.93;;
49828;SDS011;35723;51.194;5.112;2023-03-01T15:09:51;18.23;;;8.45;;
49828;SDS011;35723;51.194;5.112;2023-03-01T15:14:52;20.67;;;8.43;;
49828;SDS011;35723;51.194;5.112;2023-03-01T15:19:58;19.45;;;8.93;;
49828;SDS011;35723;51.194;5.112;2023-03-01T15:22:25;17.73;;;8.48;;
49828;SDS011;35723;51.194;5.112;2023-03-01T15:24:51;17.88;;;8.23;;
49828;SDS011;35723;51.194;5.112;2023-03-01T15:27:19;22.00;;;8.93;;
49828;SDS011;35723;51.194;5.112;2023-03-01T15:29:54;19.52;;;9.07;;
49828;SDS011;35723;51.194;5.112;2023-03-01T15:32:34;19.30;;;8.90;;
49828;SDS011;35723;51.194;5.112;2023-03-01T15:38:04;20.88;;;9.50;;
49828;SDS011;35723;51.194;5.112;2023-03-01T15:40:51;21.45;;;9.60;;
49828;SDS011;35723;51.194;5.112;2023-03-01T15:43:37;20.90;;;9.23;;
49828;SDS011;35723;51.194;5.112;2023-03-01T15:46:03;24.10;;;9.43;;
49828;SDS011;35723;51.194;5.112;2023-03-01T15:48:29;20.27;;;9.23;;
49828;SDS011;35723;51.194;5.112;2023-03-01T15:50:56;18.55;;;9.13;;
49828;SDS011;35723;51.194;5.112;2023-03-01T15:53:23;23.10;;;9.80;;
49828;SDS011;35723;51.194;5.112;2023-03-01T15:55:51;23.50;;;10.07;;
49828;SDS011;35723;51.194;5.112;2023-03-01T15:58:21;19.70;;;9.35;;
49828;SDS011;35723;51.194;5.112;2023-03-01T16:00:48;19.35;;;8.90;;
49828;SDS011;35723;51.194;5.112;2023-03-01T16:03:20;20.97;;;8.63;;
49828;SDS011;35723;51.194;5.112;2023-03-01T16:05:47;19.17;;;8.88;;
49828;SDS011;35723;51.194;5.112;2023-03-01T16:08:15;20.45;;;8.60;;
49828;SDS011;35723;51.194;5.112;2023-03-01T16:10:41;18.90;;;8.75;;
49828;SDS011;35723;51.194;5.112;2023-03-01T16:13:10;21.58;;;9.05;;
49828;SDS011;35723;51.194;5.112;2023-03-01T16:15:39;19.80;;;8.68;;
49828;SDS011;35723;51.194;5.112;2023-03-01T16:18:05;21.33;;;9.00;;
49828;SDS011;35723;51.194;5.112;2023-03-01T16:20:33;21.15;;;8.80;;
49828;SDS011;35723;51.194;5.112;2023-03-01T16:22:59;19.45;;;8.90;;
49828;SDS011;35723;51.194;5.112;2023-03-01T16:25:27;22.67;;;8.73;;
49828;SDS011;35723;51.194;5.112;2023-03-01T16:27:53;18.92;;;8.38;;
49828;SDS011;35723;51.194;5.112;2023-03-01T16:30:21;18.42;;;8.50;;
49828;SDS011;35723;51.194;5.112;2023-03-01T16:32:47;19.63;;;8.93;;
49828;SDS011;35723;51.194;5.112;2023-03-01T16:35:15;19.80;;;9.02;;
49828;SDS011;35723;51.194;5.112;2023-03-01T16:37:43;18.83;;;8.98;;
49828;SDS011;35723;51.194;5.112;2023-03-01T16:40:19;20.50;;;9.40;;
49828;SDS011;35723;51.194;5.112;2023-03-01T16:42:50;20.70;;;8.90;;
49828;SDS011;35723;51.194;5.112;2023-03-01T16:45:16;21.45;;;9.48;;
49828;SDS011;35723;51.194;5.112;2023-03-01T16:47:43;21.65;;;9.68;;
49828;SDS011;35723;51.194;5.112;2023-03-01T16:50:09;21.33;;;9.25;;
49828;SDS011;35723;51.194;5.112;2023-03-01T16:52:35;19.73;;;8.98;;
49828;SDS011;35723;51.194;5.112;2023-03-01T16:55:04;19.92;;;9.65;;
49828;SDS011;35723;51.194;5.112;2023-03-01T16:57:33;21.73;;;10.18;;
49828;SDS011;35723;51.194;5.112;2023-03-01T16:59:59;20.95;;;9.80;;
49828;SDS011;35723;51.194;5.112;2023-03-01T17:02:25;20.92;;;9.38;;
49828;SDS011;35723;51.194;5.112;2023-03-01T17:04:52;20.92;;;9.68;;
49828;SDS011;35723;51.194;5.112;2023-03-01T17:07:19;20.67;;;10.20;;
49828;SDS011;35723;51.194;5.112;2023-03-01T17:09:44;21.95;;;9.75;;
49828;SDS011;35723;51.194;5.112;2023-03-01T17:12:13;21.60;;;10.60;;
49828;SDS011;35723;51.194;5.112;2023-03-01T17:14:40;21.90;;;10.23;;
49828;SDS011;35723;51.194;5.112;2023-03-01T17:17:07;19.63;;;9.50;;
49828;SDS011;35723;51.194;5.112;2023-03-01T17:19:35;20.73;;;10.05;;
49828;SDS011;35723;51.194;5.112;2023-03-01T17:22:06;25.35;;;11.05;;
49828;SDS011;35723;51.194;5.112;2023-03-01T17:24:36;26.65;;;14.13;;
49828;SDS011;35723;51.194;5.112;2023-03-01T17:27:03;24.15;;;11.73;;
49828;SDS011;35723;51.194;5.112;2023-03-01T17:29:29;23.25;;;10.90;;
49828;SDS011;35723;51.194;5.112;2023-03-01T17:31:55;24.85;;;11.55;;
49828;SDS011;35723;51.194;5.112;2023-03-01T17:34:22;23.38;;;11.65;;
49828;SDS011;35723;51.194;5.112;2023-03-01T17:36:48;24.25;;;11.27;;
49828;SDS011;35723;51.194;5.112;2023-03-01T17:39:16;23.67;;;11.60;;
49828;SDS011;35723;51.194;5.112;2023-03-01T17:41:49;28.35;;;12.55;;
49828;SDS011;35723;51.194;5.112;2023-03-01T17:44:16;22.08;;;11.20;;
49828;SDS011;35723;51.194;5.112;2023-03-01T17:46:41;23.73;;;11.70;;
49828;SDS011;35723;51.194;5.112;2023-03-01T17:49:07;24.33;;;11.65;;
49828;SDS011;35723;51.194;5.112;2023-03-01T17:51:32;25.48;;;11.52;;
49828;SDS011;35723;51.194;5.112;2023-03-01T17:53:58;24.27;;;12.02;;